sensor_id;sensor_type;location;lat;lon;timestamp;pressure;altitude;pressure_sealevel;temperature;humidity
81812;BME280;71243;51.848;5.768;2023-09-19T00:00:44;100794.69;;;16.20;78.99
81812;BME280;71243;51.848;5.768;2023-09-19T00:03:09;100808.47;;;16.23;78.34
81812;BME280;71243;51.848;5.768;2023-09-19T00:05:36;100814.47;;;16.11;79.39
81812;BME280;71243;51.848;5.768;2023-09-19T00:08:02;100805.19;;;16.07;79.27
81812;BME280;71243;51.848;5.768;2023-09-19T00:10:28;100815.84;;;16.07;78.98
81812;BME280;71243;51.848;5.768;2023-09-19T00:12:54;100823.75;;;16.15;78.93
81812;BME280;71243;51.848;5.768;2023-09-19T00:15:19;100818.44;;;16.15;78.49
81812;BME280;71243;51.848;5.768;2023-09-19T00:17:44;100822.09;;;16.14;78.29
81812;BME280;71243;51.848;5.768;2023-09-19T00:20:11;100824.47;;;16.23;78.09
81812;BME280;71243;51.848;5.768;2023-09-19T00:22:39;100817.13;;;16.11;79.51
81812;BME280;71243;51.848;5.768;2023-09-19T00:25:04;100827.16;;;16.09;79.96
81812;BME280;71243;51.848;5.768;2023-09-19T00:27:30;100835.97;;;16.09;80.10
81812;BME280;71243;51.848;5.768;2023-09-19T00:29:55;100829.16;;;16.07;80.82
81812;BME280;71243;51.848;5.768;2023-09-19T00:32:20;100832.41;;;16.17;80.40
81812;BME280;71243;51.848;5.768;2023-09-19T00:34:45;100833.59;;;16.14;80.57
81812;BME280;71243;51.848;5.768;2023-09-19T00:37:11;100837.09;;;16.15;80.89
81812;BME280;71243;51.848;5.768;2023-09-19T00:39:36;100839.00;;;16.21;80.70
81812;BME280;71243;51.848;5.768;2023-09-19T00:42:01;100837.09;;;16.15;80.76
81812;BME280;71243;51.848;5.768;2023-09-19T00:44:26;100842.69;;;16.05;81.31
81812;BME280;71243;51.848;5.768;2023-09-19T00:46:52;100843.31;;;16.07;81.36
81812;BME280;71243;51.848;5.768;2023-09-19T00:49:18;100849.22;;;16.03;81.25
81812;BME280;71243;51.848;5.768;2023-09-19T00:51:43;100850.31;;;16.08;80.83
81812;BME280;71243;51.848;5.768;2023-09-19T00:54:08;100857.75;;;15.98;80.99
81812;BME280;71243;51.848;5.768;2023-09-19T00:56:34;100856.38;;;16.02;80.47
81812;BME280;71243;51.848;5.768;2023-09-19T00:58:59;100860.88;;;16.02;80.39
81812;BME280;71243;51.848;5.768;2023-09-19T01:01:25;100859.41;;;15.99;80.22
81812;BME280;71243;51.848;5.768;2023-09-19T01:03:50;100862.63;;;15.95;79.78
81812;BME280;71243;51.848;5.768;2023-09-19T01:06:15;100865.09;;;15.96;79.65
81812;BME280;71243;51.848;5.768;2023-09-19T01:08:41;100867.94;;;15.95;79.33
81812;BME280;71243;51.848;5.768;2023-09-19T01:11:20;100867.09;;;15.94;79.35
81812;BME280;71243;51.848;5.768;2023-09-19T01:14:20;100862.34;;;15.90;78.99
81812;BME280;71243;51.848;5.768;2023-09-19T01:20:41;100863.69;;;15.71;79.86
81812;BME280;71243;51.848;5.768;2023-09-19T01:23:03;100864.16;;;15.75;79.60
81812;BME280;71243;51.848;5.768;2023-09-19T01:29:17;100873.16;;;15.74;78.86
81812;BME280;71243;51.848;5.768;2023-09-19T01:31:49;100876.25;;;15.63;78.46
81812;BME280;71243;51.848;5.768;2023-09-19T01:34:14;100885.72;;;15.65;78.34
81812;BME280;71243;51.848;5.768;2023-09-19T01:36:39;100881.47;;;15.56;78.80
81812;BME280;71243;51.848;5.768;2023-09-19T01:39:12;100890.28;;;15.57;78.37
81812;BME280;71243;51.848;5.768;2023-09-19T01:44:20;100894.88;;;15.48;78.46
81812;BME280;71243;51.848;5.768;2023-09-19T01:46:47;100897.53;;;15.48;78.68
81812;BME280;71243;51.848;5.768;2023-09-19T01:49:27;100898.34;;;15.49;78.03
81812;BME280;71243;51.848;5.768;2023-09-19T01:54:32;100896.03;;;15.46;78.49
81812;BME280;71243;51.848;5.768;2023-09-19T01:57:15;100892.25;;;15.40;78.97
81812;BME280;71243;51.848;5.768;2023-09-19T01:59:48;100891.94;;;15.35;80.02
81812;BME280;71243;51.848;5.768;2023-09-19T02:02:16;100901.16;;;15.24;79.57
81812;BME280;71243;51.848;5.768;2023-09-19T02:04:42;100896.84;;;15.23;79.70
81812;BME280;71243;51.848;5.768;2023-09-19T02:07:07;100891.19;;;15.18;78.95
81812;BME280;71243;51.848;5.768;2023-09-19T02:09:33;100905.53;;;15.17;78.67
81812;BME280;71243;51.848;5.768;2023-09-19T02:11:58;100906.66;;;15.23;78.93
81812;BME280;71243;51.848;5.768;2023-09-19T02:14:23;100904.00;;;15.23;78.68
81812;BME280;71243;51.848;5.768;2023-09-19T02:16:48;100908.72;;;15.13;79.10
81812;BME280;71243;51.848;5.768;2023-09-19T02:19:14;100916.09;;;15.03;78.99
81812;BME280;71243;51.848;5.768;2023-09-19T02:21:39;100904.09;;;15.07;78.57
81812;BME280;71243;51.848;5.768;2023-09-19T02:24:04;100902.59;;;15.04;77.59
81812;BME280;71243;51.848;5.768;2023-09-19T02:26:29;100906.94;;;15.05;77.25
81812;BME280;71243;51.848;5.768;2023-09-19T02:28:55;100911.97;;;15.00;77.05
81812;BME280;71243;51.848;5.768;2023-09-19T02:31:20;100917.50;;;14.91;77.58
81812;BME280;71243;51.848;5.768;2023-09-19T02:33:45;100908.66;;;14.90;76.94
81812;BME280;71243;51.848;5.768;2023-09-19T02:36:10;100914.34;;;14.87;77.11
81812;BME280;71243;51.848;5.768;2023-09-19T02:38:36;100913.19;;;14.90;76.77
81812;BME280;71243;51.848;5.768;2023-09-19T02:41:01;100915.69;;;14.83;76.43
81812;BME280;71243;51.848;5.768;2023-09-19T02:43:27;100912.22;;;14.83;76.09
81812;BME280;71243;51.848;5.768;2023-09-19T02:45:52;100909.41;;;14.76;76.10
81812;BME280;71243;51.848;5.768;2023-09-19T02:48:17;100908.78;;;14.74;76.17
81812;BME280;71243;51.848;5.768;2023-09-19T02:50:43;100911.09;;;14.69;76.00
81812;BME280;71243;51.848;5.768;2023-09-19T02:53:08;100913.75;;;14.69;75.56
81812;BME280;71243;51.848;5.768;2023-09-19T02:55:33;100914.28;;;14.65;75.31
81812;BME280;71243;51.848;5.768;2023-09-19T02:57:58;100920.94;;;14.61;75.48
81812;BME280;71243;51.848;5.768;2023-09-19T03:00:24;100913.13;;;14.67;75.34
81812;BME280;71243;51.848;5.768;2023-09-19T03:02:54;100923.09;;;14.65;75.24
81812;BME280;71243;51.848;5.768;2023-09-19T03:05:20;100925.28;;;14.62;75.51
81812;BME280;71243;51.848;5.768;2023-09-19T03:07:47;100921.78;;;14.61;75.13
81812;BME280;71243;51.848;5.768;2023-09-19T03:10:13;100919.47;;;14.58;74.85
81812;BME280;71243;51.848;5.768;2023-09-19T03:12:38;100927.66;;;14.49;74.88
81812;BME280;71243;51.848;5.768;2023-09-19T03:15:03;100926.00;;;14.48;74.51
81812;BME280;71243;51.848;5.768;2023-09-19T03:17:29;100924.50;;;14.53;74.73
81812;BME280;71243;51.848;5.768;2023-09-19T03:19:54;100931.97;;;14.50;73.63
81812;BME280;71243;51.848;5.768;2023-09-19T03:22:19;100930.63;;;14.54;73.78
81812;BME280;71243;51.848;5.768;2023-09-19T03:24:44;100933.31;;;14.46;74.11
81812;BME280;71243;51.848;5.768;2023-09-19T03:27:10;100932.13;;;14.48;74.08
81812;BME280;71243;51.848;5.768;2023-09-19T03:29:35;100930.63;;;14.54;73.68
81812;BME280;71243;51.848;5.768;2023-09-19T03:32:01;100931.31;;;14.48;73.34
81812;BME280;71243;51.848;5.768;2023-09-19T03:34:26;100925.50;;;14.44;73.51
81812;BME280;71243;51.848;5.768;2023-09-19T03:36:51;100929.53;;;14.32;74.17
81812;BME280;71243;51.848;5.768;2023-09-19T03:39:16;100925.03;;;14.32;74.41
81812;BME280;71243;51.848;5.768;2023-09-19T03:41:41;100913.75;;;14.30;74.52
81812;BME280;71243;51.848;5.768;2023-09-19T03:44:07;100918.56;;;14.27;74.26
81812;BME280;71243;51.848;5.768;2023-09-19T03:46:32;100919.41;;;14.27;73.91
81812;BME280;71243;51.848;5.768;2023-09-19T03:48:58;100915.38;;;14.23;73.98
81812;BME280;71243;51.848;5.768;2023-09-19T03:51:23;100914.56;;;14.23;74.00
81812;BME280;71243;51.848;5.768;2023-09-19T03:53:48;100913.09;;;14.12;74.30
81812;BME280;71243;51.848;5.768;2023-09-19T03:56:13;100914.09;;;14.11;74.59
81812;BME280;71243;51.848;5.768;2023-09-19T03:58:39;100918.56;;;14.19;74.15
81812;BME280;71243;51.848;5.768;2023-09-19T04:01:04;100913.44;;;14.17;73.58
81812;BME280;71243;51.848;5.768;2023-09-19T04:03:29;100916.56;;;14.21;74.19
81812;BME280;71243;51.848;5.768;2023-09-19T04:05:54;100923.53;;;14.22;73.81
81812;BME280;71243;51.848;5.768;2023-09-19T04:08:20;100910.59;;;14.19;73.49
81812;BME280;71243;51.848;5.768;2023-09-19T04:10:45;100908.78;;;14.11;72.70
81812;BME280;71243;51.848;5.768;2023-09-19T04:13:10;100904.47;;;14.10;72.96
81812;BME280;71243;51.848;5.768;2023-09-19T04:15:36;100907.63;;;14.14;73.57
81812;BME280;71243;51.848;5.768;2023-09-19T04:18:01;100913.25;;;14.11;72.56
81812;BME280;71243;51.848;5.768;2023-09-19T04:20:26;100911.75;;;14.16;72.96
81812;BME280;71243;51.848;5.768;2023-09-19T04:22:52;100919.22;;;14.13;72.41
81812;BME280;71243;51.848;5.768;2023-09-19T04:25:17;100935.00;;;14.22;72.46
81812;BME280;71243;51.848;5.768;2023-09-19T04:27:44;100947.78;;;14.19;72.30
81812;BME280;71243;51.848;5.768;2023-09-19T04:30:09;100951.47;;;14.18;72.35
81812;BME280;71243;51.848;5.768;2023-09-19T04:32:35;100966.06;;;14.22;72.69
81812;BME280;71243;51.848;5.768;2023-09-19T04:35:00;100968.72;;;14.22;72.47
81812;BME280;71243;51.848;5.768;2023-09-19T04:37:26;100971.72;;;14.19;72.61
81812;BME280;71243;51.848;5.768;2023-09-19T04:39:51;100975.53;;;14.24;72.47
81812;BME280;71243;51.848;5.768;2023-09-19T04:42:16;100981.81;;;14.23;72.53
81812;BME280;71243;51.848;5.768;2023-09-19T04:44:41;100982.34;;;14.27;72.13
81812;BME280;71243;51.848;5.768;2023-09-19T04:47:06;100986.34;;;14.23;72.85
81812;BME280;71243;51.848;5.768;2023-09-19T04:49:32;100979.84;;;14.25;72.76
81812;BME280;71243;51.848;5.768;2023-09-19T04:51:57;100991.47;;;14.24;72.95
81812;BME280;71243;51.848;5.768;2023-09-19T04:54:22;100979.03;;;14.25;72.88
81812;BME280;71243;51.848;5.768;2023-09-19T04:56:48;100986.03;;;14.26;73.01
81812;BME280;71243;51.848;5.768;2023-09-19T04:59:13;100981.53;;;14.26;73.15
81812;BME280;71243;51.848;5.768;2023-09-19T05:01:38;100994.47;;;14.21;73.42
81812;BME280;71243;51.848;5.768;2023-09-19T05:04:03;100985.16;;;14.25;73.37
81812;BME280;71243;51.848;5.768;2023-09-19T05:06:29;100989.66;;;14.25;73.31
81812;BME280;71243;51.848;5.768;2023-09-19T05:08:54;101001.09;;;14.25;73.36
81812;BME280;71243;51.848;5.768;2023-09-19T05:11:19;100994.97;;;14.25;73.09
81812;BME280;71243;51.848;5.768;2023-09-19T05:13:45;100988.66;;;14.34;73.14
81812;BME280;71243;51.848;5.768;2023-09-19T05:16:10;100993.81;;;14.36;73.06
81812;BME280;71243;51.848;5.768;2023-09-19T05:18:35;100991.00;;;14.37;73.34
81812;BME280;71243;51.848;5.768;2023-09-19T05:21:02;100987.84;;;14.34;73.73
81812;BME280;71243;51.848;5.768;2023-09-19T05:23:27;100990.16;;;14.37;73.66
81812;BME280;71243;51.848;5.768;2023-09-19T05:25:53;100981.69;;;14.33;73.96
81812;BME280;71243;51.848;5.768;2023-09-19T05:28:18;100986.47;;;14.38;73.90
81812;BME280;71243;51.848;5.768;2023-09-19T05:30:43;100984.00;;;14.36;74.11
81812;BME280;71243;51.848;5.768;2023-09-19T05:33:09;100981.34;;;14.36;74.30
81812;BME280;71243;51.848;5.768;2023-09-19T05:35:34;100986.66;;;14.36;74.49
81812;BME280;71243;51.848;5.768;2023-09-19T05:38:00;100992.78;;;14.45;74.03
81812;BME280;71243;51.848;5.768;2023-09-19T05:40:25;100997.13;;;14.38;74.23
81812;BME280;71243;51.848;5.768;2023-09-19T05:42:51;100988.66;;;14.34;75.12
81812;BME280;71243;51.848;5.768;2023-09-19T05:45:17;100991.16;;;14.36;75.33
81812;BME280;71243;51.848;5.768;2023-09-19T05:47:42;101000.63;;;14.38;74.75
81812;BME280;71243;51.848;5.768;2023-09-19T05:50:08;100995.78;;;14.42;74.97
81812;BME280;71243;51.848;5.768;2023-09-19T05:52:34;100998.94;;;14.45;74.85
81812;BME280;71243;51.848;5.768;2023-09-19T05:54:59;100995.44;;;14.45;75.06
81812;BME280;71243;51.848;5.768;2023-09-19T05:57:24;100985.47;;;14.47;75.22
81812;BME280;71243;51.848;5.768;2023-09-19T05:59:49;100988.47;;;14.44;75.50
81812;BME280;71243;51.848;5.768;2023-09-19T06:02:15;100992.78;;;14.45;75.36
81812;BME280;71243;51.848;5.768;2023-09-19T06:04:40;100989.97;;;14.46;75.60
81812;BME280;71243;51.848;5.768;2023-09-19T06:07:05;100995.31;;;14.46;76.21
81812;BME280;71243;51.848;5.768;2023-09-19T06:09:30;100998.59;;;14.48;76.26
81812;BME280;71243;51.848;5.768;2023-09-19T06:11:56;100994.59;;;14.52;76.17
81812;BME280;71243;51.848;5.768;2023-09-19T06:14:21;100991.78;;;14.54;76.05
81812;BME280;71243;51.848;5.768;2023-09-19T06:16:46;100997.09;;;14.54;76.46
81812;BME280;71243;51.848;5.768;2023-09-19T06:19:11;100997.75;;;14.56;76.52
81812;BME280;71243;51.848;5.768;2023-09-19T06:21:36;101005.06;;;14.54;76.50
81812;BME280;71243;51.848;5.768;2023-09-19T06:24:02;100999.56;;;14.55;76.55
81812;BME280;71243;51.848;5.768;2023-09-19T06:26:27;100994.91;;;14.57;76.55
81812;BME280;71243;51.848;5.768;2023-09-19T06:28:52;101002.91;;;14.57;76.78
81812;BME280;71243;51.848;5.768;2023-09-19T06:31:18;101005.38;;;14.59;76.79
81812;BME280;71243;51.848;5.768;2023-09-19T06:33:43;101013.03;;;14.62;76.86
81812;BME280;71243;51.848;5.768;2023-09-19T06:36:08;101020.84;;;14.63;77.37
81812;BME280;71243;51.848;5.768;2023-09-19T06:38:34;101020.66;;;14.65;76.96
81812;BME280;71243;51.848;5.768;2023-09-19T06:40:59;101032.47;;;14.70;77.08
81812;BME280;71243;51.848;5.768;2023-09-19T06:43:25;101028.63;;;14.73;77.22
81812;BME280;71243;51.848;5.768;2023-09-19T06:45:50;101026.78;;;14.81;76.88
81812;BME280;71243;51.848;5.768;2023-09-19T06:48:15;101034.78;;;14.73;77.38
81812;BME280;71243;51.848;5.768;2023-09-19T06:50:40;101022.28;;;14.82;77.55
81812;BME280;71243;51.848;5.768;2023-09-19T06:53:06;101022.94;;;14.84;77.02
81812;BME280;71243;51.848;5.768;2023-09-19T06:55:31;101015.97;;;14.83;77.09
81812;BME280;71243;51.848;5.768;2023-09-19T06:57:56;101017.44;;;14.85;76.98
81812;BME280;71243;51.848;5.768;2023-09-19T07:00:21;101017.75;;;14.90;77.33
81812;BME280;71243;51.848;5.768;2023-09-19T07:03:00;101009.63;;;14.92;77.09
81812;BME280;71243;51.848;5.768;2023-09-19T07:05:30;101012.41;;;14.98;76.73
81812;BME280;71243;51.848;5.768;2023-09-19T07:07:55;101021.25;;;14.99;76.51
81812;BME280;71243;51.848;5.768;2023-09-19T07:10:21;101030.69;;;15.01;76.39
81812;BME280;71243;51.848;5.768;2023-09-19T07:12:46;101028.88;;;15.02;76.66
81812;BME280;71243;51.848;5.768;2023-09-19T07:15:12;101014.72;;;15.01;77.09
81812;BME280;71243;51.848;5.768;2023-09-19T07:17:37;101025.84;;;15.05;76.53
81812;BME280;71243;51.848;5.768;2023-09-19T07:20:02;101028.50;;;15.13;76.45
81812;BME280;71243;51.848;5.768;2023-09-19T07:22:28;101034.44;;;15.15;76.77
81812;BME280;71243;51.848;5.768;2023-09-19T07:24:53;101028.28;;;15.22;76.67
81812;BME280;71243;51.848;5.768;2023-09-19T07:27:18;101034.38;;;15.31;76.62
81812;BME280;71243;51.848;5.768;2023-09-19T07:29:43;101030.38;;;15.35;76.08
81812;BME280;71243;51.848;5.768;2023-09-19T07:32:09;101029.72;;;15.33;76.40
81812;BME280;71243;51.848;5.768;2023-09-19T07:34:34;101037.81;;;15.39;76.01
81812;BME280;71243;51.848;5.768;2023-09-19T07:36:59;101029.19;;;15.46;75.61
81812;BME280;71243;51.848;5.768;2023-09-19T07:39:24;101046.19;;;15.45;75.74
81812;BME280;71243;51.848;5.768;2023-09-19T07:41:50;101039.31;;;15.50;75.58
81812;BME280;71243;51.848;5.768;2023-09-19T07:44:15;101033.16;;;15.50;75.11
81812;BME280;71243;51.848;5.768;2023-09-19T07:46:40;101033.28;;;15.56;75.64
81812;BME280;71243;51.848;5.768;2023-09-19T07:49:05;101038.25;;;15.59;74.99
81812;BME280;71243;51.848;5.768;2023-09-19T07:51:30;101044.06;;;15.63;75.01
81812;BME280;71243;51.848;5.768;2023-09-19T07:53:56;101050.34;;;15.70;75.59
81812;BME280;71243;51.848;5.768;2023-09-19T07:56:21;101061.78;;;15.78;74.87
81812;BME280;71243;51.848;5.768;2023-09-19T07:58:47;101062.28;;;15.82;74.97
81812;BME280;71243;51.848;5.768;2023-09-19T08:01:12;101053.84;;;15.93;74.53
81812;BME280;71243;51.848;5.768;2023-09-19T08:03:37;101057.28;;;16.01;74.45
81812;BME280;71243;51.848;5.768;2023-09-19T08:06:02;101048.94;;;16.04;74.56
81812;BME280;71243;51.848;5.768;2023-09-19T08:08:28;101058.06;;;16.10;74.03
81812;BME280;71243;51.848;5.768;2023-09-19T08:10:56;101060.47;;;16.19;73.58
81812;BME280;71243;51.848;5.768;2023-09-19T08:13:23;101057.75;;;16.27;72.79
81812;BME280;71243;51.848;5.768;2023-09-19T08:15:48;101044.22;;;16.29;73.53
81812;BME280;71243;51.848;5.768;2023-09-19T08:18:14;101052.53;;;16.34;73.12
81812;BME280;71243;51.848;5.768;2023-09-19T08:20:39;101059.78;;;16.40;73.19
81812;BME280;71243;51.848;5.768;2023-09-19T08:23:05;101049.66;;;16.35;72.66
81812;BME280;71243;51.848;5.768;2023-09-19T08:25:30;101059.06;;;16.46;73.59
81812;BME280;71243;51.848;5.768;2023-09-19T08:27:55;101065.38;;;16.53;72.74
81812;BME280;71243;51.848;5.768;2023-09-19T08:30:22;101063.63;;;16.60;72.27
81812;BME280;71243;51.848;5.768;2023-09-19T08:32:47;101052.97;;;16.60;72.21
81812;BME280;71243;51.848;5.768;2023-09-19T08:35:12;101060.53;;;16.71;71.93
81812;BME280;71243;51.848;5.768;2023-09-19T08:37:38;101038.16;;;16.87;71.50
81812;BME280;71243;51.848;5.768;2023-09-19T08:40:03;101057.22;;;16.84;71.07
81812;BME280;71243;51.848;5.768;2023-09-19T08:42:29;101056.94;;;16.93;70.78
81812;BME280;71243;51.848;5.768;2023-09-19T08:44:55;101055.47;;;17.05;70.78
81812;BME280;71243;51.848;5.768;2023-09-19T08:47:34;101059.25;;;17.11;70.81
81812;BME280;71243;51.848;5.768;2023-09-19T08:50:04;101065.94;;;17.21;70.54
81812;BME280;71243;51.848;5.768;2023-09-19T08:52:42;101059.22;;;17.25;68.98
81812;BME280;71243;51.848;5.768;2023-09-19T08:55:12;101059.22;;;17.25;68.75
81812;BME280;71243;51.848;5.768;2023-09-19T08:57:38;101049.66;;;17.31;68.95
81812;BME280;71243;51.848;5.768;2023-09-19T09:00:04;101044.13;;;17.47;69.21
81812;BME280;71243;51.848;5.768;2023-09-19T09:02:31;101056.81;;;17.60;68.53
81812;BME280;71243;51.848;5.768;2023-09-19T09:04:58;101051.34;;;17.68;68.97
81812;BME280;71243;51.848;5.768;2023-09-19T09:07:24;101059.06;;;17.77;67.71
81812;BME280;71243;51.848;5.768;2023-09-19T09:09:50;101059.13;;;17.84;66.72
81812;BME280;71243;51.848;5.768;2023-09-19T09:12:16;101039.63;;;17.90;67.09
81812;BME280;71243;51.848;5.768;2023-09-19T09:14:45;101051.50;;;18.02;67.37
81812;BME280;71243;51.848;5.768;2023-09-19T09:17:11;101055.16;;;18.22;67.35
81812;BME280;71243;51.848;5.768;2023-09-19T09:19:36;101035.19;;;18.18;65.75
81812;BME280;71243;51.848;5.768;2023-09-19T09:22:11;101028.59;;;18.20;66.24
81812;BME280;71243;51.848;5.768;2023-09-19T09:24:37;101031.09;;;18.22;64.13
81812;BME280;71243;51.848;5.768;2023-09-19T09:27:06;101039.00;;;18.30;64.73
81812;BME280;71243;51.848;5.768;2023-09-19T09:29:43;101043.03;;;18.40;65.09
81812;BME280;71243;51.848;5.768;2023-09-19T09:32:20;101030.72;;;18.46;64.17
81812;BME280;71243;51.848;5.768;2023-09-19T09:34:46;101020.94;;;18.38;63.56
81812;BME280;71243;51.848;5.768;2023-09-19T09:37:14;101026.56;;;18.43;64.42
81812;BME280;71243;51.848;5.768;2023-09-19T09:39:39;101029.09;;;18.51;64.22
81812;BME280;71243;51.848;5.768;2023-09-19T09:42:05;101024.22;;;18.62;64.02
81812;BME280;71243;51.848;5.768;2023-09-19T09:44:30;101020.44;;;18.49;64.03
81812;BME280;71243;51.848;5.768;2023-09-19T09:46:55;101036.09;;;18.52;63.36
81812;BME280;71243;51.848;5.768;2023-09-19T09:49:25;101031.00;;;18.57;62.93
81812;BME280;71243;51.848;5.768;2023-09-19T09:51:59;101030.69;;;18.74;64.22
81812;BME280;71243;51.848;5.768;2023-09-19T09:54:28;101035.34;;;18.93;64.36
81812;BME280;71243;51.848;5.768;2023-09-19T09:59:19;101027.53;;;19.04;63.52
81812;BME280;71243;51.848;5.768;2023-09-19T10:01:47;101023.84;;;19.05;62.38
81812;BME280;71243;51.848;5.768;2023-09-19T10:04:27;101038.34;;;19.24;62.29
81812;BME280;71243;51.848;5.768;2023-09-19T10:06:52;101030.94;;;19.19;62.58
81812;BME280;71243;51.848;5.768;2023-09-19T10:09:17;101027.41;;;19.19;61.98
81812;BME280;71243;51.848;5.768;2023-09-19T10:12:03;101013.25;;;19.25;62.20
81812;BME280;71243;51.848;5.768;2023-09-19T10:14:30;101019.91;;;19.42;62.59
81812;BME280;71243;51.848;5.768;2023-09-19T10:16:59;101023.44;;;19.42;60.61
81812;BME280;71243;51.848;5.768;2023-09-19T10:22:14;101017.00;;;19.30;59.57
81812;BME280;71243;51.848;5.768;2023-09-19T10:24:41;101017.34;;;19.27;61.48
81812;BME280;71243;51.848;5.768;2023-09-19T10:27:06;101018.81;;;19.30;60.61
81812;BME280;71243;51.848;5.768;2023-09-19T10:29:34;101010.56;;;19.25;60.67
81812;BME280;71243;51.848;5.768;2023-09-19T10:32:01;101017.34;;;19.27;60.84
81812;BME280;71243;51.848;5.768;2023-09-19T10:34:29;101012.94;;;19.54;61.68
81812;BME280;71243;51.848;5.768;2023-09-19T10:36:55;101010.66;;;19.51;60.30
81812;BME280;71243;51.848;5.768;2023-09-19T10:39:20;101008.34;;;19.41;60.42
81812;BME280;71243;51.848;5.768;2023-09-19T10:41:53;101006.72;;;19.40;60.88
81812;BME280;71243;51.848;5.768;2023-09-19T10:44:23;101008.34;;;19.41;59.44
81812;BME280;71243;51.848;5.768;2023-09-19T10:46:49;101016.34;;;19.28;61.54
81812;BME280;71243;51.848;5.768;2023-09-19T10:49:14;101006.34;;;19.50;61.42
81812;BME280;71243;51.848;5.768;2023-09-19T10:51:41;101013.56;;;19.62;60.02
81812;BME280;71243;51.848;5.768;2023-09-19T10:54:11;101009.88;;;19.70;59.63
81812;BME280;71243;51.848;5.768;2023-09-19T10:56:38;101007.41;;;19.68;59.67
81812;BME280;71243;51.848;5.768;2023-09-19T10:59:15;101003.50;;;19.71;59.15
81812;BME280;71243;51.848;5.768;2023-09-19T11:01:49;100994.22;;;19.80;58.82
81812;BME280;71243;51.848;5.768;2023-09-19T11:04:33;100995.47;;;19.91;59.86
81812;BME280;71243;51.848;5.768;2023-09-19T11:07:06;100990.69;;;19.73;59.42
81812;BME280;71243;51.848;5.768;2023-09-19T11:10:01;100982.47;;;19.81;59.80
81812;BME280;71243;51.848;5.768;2023-09-19T11:14:55;100972.78;;;19.87;57.79
81812;BME280;71243;51.848;5.768;2023-09-19T11:30:44;100958.31;;;19.94;57.60
81812;BME280;71243;51.848;5.768;2023-09-19T11:36:03;100964.34;;;20.03;57.61
81812;BME280;71243;51.848;5.768;2023-09-19T11:43:46;100938.50;;;20.08;57.68
81812;BME280;71243;51.848;5.768;2023-09-19T11:46:12;100929.47;;;20.29;57.69
81812;BME280;71243;51.848;5.768;2023-09-19T11:48:40;100943.28;;;20.26;56.15
81812;BME280;71243;51.848;5.768;2023-09-19T11:51:11;100941.44;;;20.26;56.29
81812;BME280;71243;51.848;5.768;2023-09-19T11:53:36;100940.81;;;20.24;56.45
81812;BME280;71243;51.848;5.768;2023-09-19T11:56:06;100942.03;;;20.28;56.89
81812;BME280;71243;51.848;5.768;2023-09-19T11:58:31;100944.50;;;20.04;55.51
81812;BME280;71243;51.848;5.768;2023-09-19T12:00:58;100938.75;;;20.00;56.32
81812;BME280;71243;51.848;5.768;2023-09-19T12:03:29;100948.03;;;20.04;55.63
81812;BME280;71243;51.848;5.768;2023-09-19T12:05:54;100940.81;;;20.11;56.14
81812;BME280;71243;51.848;5.768;2023-09-19T12:08:19;100943.69;;;20.03;55.04
81812;BME280;71243;51.848;5.768;2023-09-19T12:10:48;100938.94;;;20.05;56.04
81812;BME280;71243;51.848;5.768;2023-09-19T12:13:18;100931.09;;;20.10;55.75
81812;BME280;71243;51.848;5.768;2023-09-19T12:15:44;100937.69;;;20.14;55.72
81812;BME280;71243;51.848;5.768;2023-09-19T12:18:09;100946.78;;;20.13;55.54
81812;BME280;71243;51.848;5.768;2023-09-19T12:20:44;100933.38;;;20.13;55.48
81812;BME280;71243;51.848;5.768;2023-09-19T12:23:13;100916.66;;;20.31;55.36
81812;BME280;71243;51.848;5.768;2023-09-19T12:25:44;100930.25;;;20.42;54.78
81812;BME280;71243;51.848;5.768;2023-09-19T12:28:10;100939.28;;;20.67;54.19
81812;BME280;71243;51.848;5.768;2023-09-19T12:30:36;100937.59;;;20.73;55.00
81812;BME280;71243;51.848;5.768;2023-09-19T12:33:02;100944.06;;;20.59;54.66
81812;BME280;71243;51.848;5.768;2023-09-19T12:35:28;100931.69;;;20.45;54.03
81812;BME280;71243;51.848;5.768;2023-09-19T12:37:54;100937.88;;;20.45;54.96
81812;BME280;71243;51.848;5.768;2023-09-19T12:40:21;100947.81;;;20.45;55.63
81812;BME280;71243;51.848;5.768;2023-09-19T12:42:47;100936.84;;;20.40;55.79
81812;BME280;71243;51.848;5.768;2023-09-19T12:45:14;100942.25;;;20.33;54.67
81812;BME280;71243;51.848;5.768;2023-09-19T12:47:39;100952.75;;;20.35;55.72
81812;BME280;71243;51.848;5.768;2023-09-19T12:50:11;100940.41;;;20.27;55.27
81812;BME280;71243;51.848;5.768;2023-09-19T12:52:37;100937.31;;;20.17;55.93
81812;BME280;71243;51.848;5.768;2023-09-19T12:55:03;100930.88;;;20.12;56.32
81812;BME280;71243;51.848;5.768;2023-09-19T12:57:29;100945.75;;;20.01;55.95
81812;BME280;71243;51.848;5.768;2023-09-19T12:59:54;100946.56;;;20.02;56.44
81812;BME280;71243;51.848;5.768;2023-09-19T13:02:20;100940.81;;;20.11;56.74
81812;BME280;71243;51.848;5.768;2023-09-19T13:04:54;100936.25;;;20.12;57.49
81812;BME280;71243;51.848;5.768;2023-09-19T13:07:42;100937.72;;;20.08;57.07
81812;BME280;71243;51.848;5.768;2023-09-19T13:10:07;100938.72;;;20.07;57.34
81812;BME280;71243;51.848;5.768;2023-09-19T13:12:37;100941.63;;;20.05;57.01
81812;BME280;71243;51.848;5.768;2023-09-19T13:15:13;100945.75;;;20.01;56.58
81812;BME280;71243;51.848;5.768;2023-09-19T13:17:46;100936.06;;;20.00;57.19
81812;BME280;71243;51.848;5.768;2023-09-19T13:20:25;100925.34;;;19.94;57.07
81812;BME280;71243;51.848;5.768;2023-09-19T13:22:50;100924.72;;;19.92;57.57
81812;BME280;71243;51.848;5.768;2023-09-19T13:25:18;100926.97;;;20.01;56.63
81812;BME280;71243;51.848;5.768;2023-09-19T13:27:45;100932.97;;;20.10;56.43
81812;BME280;71243;51.848;5.768;2023-09-19T13:30:11;100931.50;;;20.07;57.11